This is the latest recevied weather packets stored in our database for station/object NC4M. If no packets are shown the sender has not sent any weather packets the latest 10 day(s).
| Time | Temp. | Humidity | Pressure | Rain* | Wind** | Luminosity | Snow |
|---|---|---|---|---|---|---|---|
| 1778123169 | 8.33° C | 77% | 1018.2 hPa | 0 mm | - | 0 W/m² | - |
| 1778122867 | 8.33° C | 73% | 1018 hPa | 0 mm | - | 0 W/m² | - |
| 1778122564 | 8.89° C | 69% | 1017.9 hPa | 0 mm | - | 0 W/m² | - |
| 1778122261 | 8.89° C | 67% | 1017.8 hPa | 0 mm | - | 0 W/m² | - |
| 1778121959 | 9.44° C | 66% | 1017.8 hPa | 0 mm | - | 0 W/m² | - |
| 1778121656 | 10° C | 63% | 1017.9 hPa | 0 mm | - | 0 W/m² | - |
| 1778121351 | 10° C | 65% | 1017.9 hPa | 0 mm | - | 0 W/m² | - |
| 1778121049 | 10.56° C | 61% | 1017.8 hPa | 0 mm | - | 0 W/m² | - |
| 1778120746 | 10.56° C | 58% | 1017.9 hPa | 0 mm | - | 0 W/m² | - |
| 1778120441 | 10.56° C | 57% | 1017.7 hPa | 0 mm | - | 0 W/m² | - |
| 1778120137 | 11.11° C | 55% | 1017.7 hPa | 0 mm | - | 0 W/m² | - |
| 1778119834 | 11.11° C | 54% | 1017.6 hPa | 0 mm | - | 0 W/m² | - |
| 1778119531 | 11.67° C | 54% | 1017.5 hPa | 0 mm | - | 0 W/m² | - |
| 1778119228 | 11.67° C | 53% | 1017.4 hPa | 0 mm | - | 0 W/m² | - |
| 1778118926 | 11.67° C | 54% | 1017.4 hPa | 0 mm | - | 0 W/m² | - |
| 1778118623 | 11.67° C | 54% | 1017.3 hPa | 0 mm | - | 0 W/m² | - |
| 1778118320 | 11.67° C | 53% | 1017.1 hPa | 0 mm | - | 0 W/m² | - |
| 1778118016 | 11.67° C | 53% | 1017 hPa | 0 mm | - | 0 W/m² | - |
| 1778117713 | 12.22° C | 53% | 1017 hPa | 0 mm | - | 0 W/m² | - |
| 1778117410 | 12.22° C | 53% | 1016.9 hPa | 0 mm | - | 0 W/m² | - |
| 1778117107 | 11.67° C | 54% | 1017 hPa | 0 mm | - | 0 W/m² | - |
| 1778116803 | 11.67° C | 53% | 1016.9 hPa | 0 mm | - | 0 W/m² | - |
| 1778116500 | 11.11° C | 61% | 1016.7 hPa | 0 mm | - | 0 W/m² | - |
| 1778116196 | 11.11° C | 68% | 1016.7 hPa | 0 mm | - | 1 W/m² | - |
| 1778115891 | 11.11° C | 66% | 1016.7 hPa | 0 mm | - | 2 W/m² | - |
* Rain latest hour (hover to see other rain measurements)
** Current wind speed in m/s (hover to see current wind gust speed)